createdAt,value
2018-11-22T00:37:24.264Z,4.37
2018-11-22T00:39:53.179Z,4.70
2018-11-22T00:42:22.399Z,4.63
2018-11-22T00:44:51.377Z,5.67
2018-11-22T00:47:20.401Z,4.90
2018-11-22T00:49:49.395Z,3.80
2018-11-22T00:52:18.354Z,3.73
2018-11-22T00:54:47.203Z,5.40
2018-11-22T00:57:16.120Z,4.10
2018-11-22T00:59:45.018Z,6.00
2018-11-22T01:02:13.902Z,5.37
2018-11-22T01:04:42.780Z,4.97
2018-11-22T01:07:11.741Z,4.93
2018-11-22T01:09:40.616Z,4.23
2018-11-22T01:12:09.511Z,4.30
2018-11-22T01:14:38.375Z,4.80
2018-11-22T01:17:07.362Z,4.57
2018-11-22T01:19:36.254Z,5.80
2018-11-22T01:22:05.440Z,5.70
2018-11-22T01:24:34.383Z,5.93
2018-11-22T01:27:03.273Z,4.80
2018-11-22T01:29:32.193Z,4.80
2018-11-22T01:32:01.046Z,4.53
2018-11-22T01:34:29.971Z,4.70
2018-11-22T01:36:58.845Z,5.43
2018-11-22T01:39:27.767Z,5.80
2018-11-22T01:41:56.621Z,6.10
2018-11-22T01:44:25.604Z,6.03
2018-11-22T01:46:54.542Z,5.17
2018-11-22T01:49:23.473Z,5.43
2018-11-22T01:51:52.386Z,5.37
2018-11-22T01:54:21.285Z,5.07
2018-11-22T01:56:50.132Z,5.27
2018-11-22T01:59:19.082Z,4.40
2018-11-22T02:01:47.960Z,5.00
2018-11-22T02:04:16.907Z,5.33
2018-11-22T02:06:45.804Z,4.87
2018-11-22T02:09:14.727Z,5.00
2018-11-22T02:11:43.611Z,5.43
2018-11-22T02:14:12.529Z,5.80
2018-11-22T02:16:41.383Z,5.70
2018-11-22T02:19:10.364Z,5.50
2018-11-22T02:21:39.233Z,4.13
2018-11-22T02:24:08.198Z,4.67
2018-11-22T02:26:37.057Z,4.23
2018-11-22T02:29:06.284Z,4.73
2018-11-22T02:31:35.208Z,4.50
2018-11-22T02:34:04.096Z,4.50
2018-11-22T02:36:32.963Z,4.70
2018-11-22T02:39:01.884Z,4.30
2018-11-22T02:41:30.746Z,4.53
2018-11-22T02:43:59.659Z,4.50
2018-11-22T02:46:28.526Z,5.23
2018-11-22T02:48:57.452Z,4.70
2018-11-22T02:51:26.380Z,5.60
2018-11-22T02:53:55.279Z,4.50
2018-11-22T02:56:24.211Z,5.70
2018-11-22T02:58:53.106Z,4.60
2018-11-22T03:01:22.027Z,6.50
2018-11-22T03:03:50.878Z,4.07
2018-11-22T03:06:19.802Z,5.20
2018-11-22T03:08:48.686Z,6.07
2018-11-22T03:11:17.590Z,5.40
2018-11-22T03:13:46.440Z,5.10
2018-11-22T03:16:15.531Z,6.17
2018-11-22T03:18:44.397Z,5.97
2018-11-22T03:21:13.368Z,6.27
2018-11-22T03:23:42.274Z,6.27
2018-11-22T03:26:11.193Z,5.20
2018-11-22T03:28:40.053Z,5.00
2018-11-22T03:31:08.976Z,5.27
2018-11-22T03:33:37.851Z,5.00
2018-11-22T03:36:06.746Z,6.27
2018-11-22T03:38:35.649Z,6.47
2018-11-22T03:41:04.572Z,6.67
2018-11-22T03:43:33.444Z,6.03
2018-11-22T03:46:02.352Z,5.53
2018-11-22T03:48:31.232Z,4.97
2018-11-22T03:51:00.161Z,4.57
2018-11-22T03:53:29.059Z,5.67
2018-11-22T03:55:57.972Z,4.50
2018-11-22T03:58:26.834Z,3.93
2018-11-22T04:00:55.760Z,4.50
2018-11-22T04:03:24.679Z,3.73
2018-11-22T04:05:53.560Z,3.30
2018-11-22T04:08:23.672Z,5.73
2018-11-22T04:10:51.379Z,4.63
2018-11-22T04:13:20.233Z,4.63
2018-11-22T04:15:49.140Z,6.47
2018-11-22T04:18:17.975Z,4.20
2018-11-22T04:20:46.909Z,5.30
2018-11-22T04:23:15.758Z,4.23
2018-11-22T04:25:44.698Z,5.23
2018-11-22T04:28:13.584Z,4.70
2018-11-22T04:30:42.517Z,5.10
2018-11-22T04:33:11.412Z,4.30
2018-11-22T04:35:40.303Z,4.53
2018-11-22T04:38:09.181Z,3.70
2018-11-22T04:40:38.082Z,4.97
2018-11-22T04:43:06.960Z,5.20
2018-11-22T04:45:35.888Z,4.50
2018-11-22T04:48:05.349Z,4.37
2018-11-22T04:50:36.041Z,6.30
2018-11-22T04:53:04.973Z,5.37
2018-11-22T04:55:33.902Z,5.80
2018-11-22T04:58:02.748Z,5.90
2018-11-22T05:00:31.650Z,6.40
2018-11-22T05:03:00.515Z,5.53
2018-11-22T05:05:29.649Z,5.23
2018-11-22T05:07:58.576Z,4.87
2018-11-22T05:10:28.830Z,5.27
2018-11-22T05:12:58.120Z,7.60
2018-11-22T05:15:28.709Z,5.13
2018-11-22T05:17:57.635Z,6.43
2018-11-22T05:20:26.504Z,4.70
2018-11-22T05:22:55.653Z,7.60
2018-11-22T05:25:24.524Z,7.30
2018-11-22T05:27:53.459Z,8.00
2018-11-22T05:30:24.001Z,6.60
2018-11-22T05:32:52.925Z,6.57
2018-11-22T05:35:22.101Z,5.73
2018-11-22T05:37:51.105Z,5.70
2018-11-22T05:40:24.274Z,6.40
2018-11-22T05:42:54.272Z,6.67
2018-11-22T05:45:23.614Z,6.23
2018-11-22T05:47:52.612Z,6.90
2018-11-22T05:50:25.990Z,6.43
2018-11-22T05:52:56.422Z,7.70
2018-11-22T05:55:25.300Z,7.33
2018-11-22T05:57:54.526Z,6.50
2018-11-22T06:00:24.945Z,7.50
2018-11-22T06:02:54.113Z,7.00
2018-11-22T06:05:24.361Z,7.37
2018-11-22T06:07:53.408Z,6.20
2018-11-22T06:10:23.585Z,6.90
2018-11-22T06:12:53.231Z,6.77
2018-11-22T06:15:22.285Z,6.17
2018-11-22T06:17:52.162Z,7.70
2018-11-22T06:20:22.425Z,7.33
2018-11-22T06:22:51.772Z,7.97
2018-11-22T06:25:20.962Z,8.00
2018-11-22T06:27:50.386Z,7.73
2018-11-22T06:30:30.231Z,7.43
2018-11-22T06:33:00.381Z,7.00
2018-11-22T06:35:30.031Z,6.90
2018-11-22T06:37:59.102Z,7.03
2018-11-22T06:40:27.984Z,6.87
2018-11-22T06:42:57.661Z,7.50
2018-11-22T06:45:27.933Z,7.50
2018-11-22T12:18:04.365Z,5.80
2018-11-22T12:20:33.368Z,4.03
2018-11-22T12:23:02.360Z,4.47
2018-11-22T12:25:31.348Z,4.80
2018-11-22T12:28:01.881Z,5.60
2018-11-22T12:30:32.523Z,3.67
2018-11-22T12:33:07.352Z,4.10
2018-11-22T12:35:46.585Z,3.47
2018-11-22T12:38:20.792Z,3.37
2018-11-22T12:40:50.103Z,4.03
2018-11-22T12:43:19.402Z,3.23
2018-11-22T12:45:48.856Z,4.93
2018-11-22T12:48:18.094Z,4.60
2018-11-22T12:50:47.347Z,1.20
2018-11-22T12:53:16.608Z,5.07
2018-11-22T12:55:45.898Z,2.47
2018-11-22T12:58:15.313Z,4.27
2018-11-22T13:00:44.547Z,1.40
2018-11-22T13:03:13.811Z,4.97
2018-11-22T13:05:43.067Z,2.13
2018-11-22T13:08:12.360Z,7.13
2018-11-22T13:10:41.638Z,4.63
2018-11-22T13:13:11.024Z,3.57
2018-11-22T13:15:40.303Z,3.70
2018-11-22T13:18:09.668Z,6.13
2018-11-22T13:20:38.898Z,4.23
2018-11-22T13:23:08.067Z,5.97
2018-11-22T13:25:37.315Z,7.33
2018-11-22T13:28:06.743Z,6.10
2018-11-22T13:30:35.942Z,6.40
2018-11-22T13:33:05.148Z,6.60
2018-11-22T13:35:34.724Z,6.80
2018-11-22T13:38:04.066Z,3.47
2018-11-22T13:40:33.314Z,1.30
2018-11-22T13:43:02.697Z,4.10
2018-11-22T13:45:32.094Z,3.20
2018-11-22T13:48:01.356Z,4.27
2018-11-22T13:50:32.669Z,2.97
2018-11-22T13:53:03.407Z,4.80
2018-11-22T13:55:32.882Z,5.40
2018-11-22T13:58:02.319Z,5.53
2018-11-22T14:00:33.342Z,4.53
2018-11-22T14:03:06.842Z,0.67
2018-11-22T14:05:37.159Z,3.77
2018-11-22T14:08:06.566Z,4.70
2018-11-22T14:10:35.864Z,4.70
2018-11-22T14:13:05.574Z,4.07
2018-11-22T14:15:35.186Z,4.57
2018-11-22T14:18:05.916Z,4.23
2018-11-22T14:20:36.422Z,4.33
2018-11-22T14:23:06.356Z,5.27
2018-11-22T14:25:36.443Z,4.67
2018-11-22T14:28:06.094Z,6.90
2018-11-22T14:30:36.517Z,4.33
2018-11-22T14:33:06.222Z,3.97
2018-11-22T14:35:35.937Z,4.30
2018-11-22T14:38:05.494Z,6.13
2018-11-22T14:40:34.878Z,3.50
2018-11-22T14:43:04.250Z,5.57
2018-11-22T14:45:33.572Z,7.07
2018-11-22T14:48:03.906Z,0.90
2018-11-22T14:50:37.203Z,2.13
2018-11-22T14:53:09.075Z,2.30
2018-11-22T14:55:38.895Z,4.03
2018-11-22T14:58:08.590Z,2.87
2018-11-22T15:00:37.964Z,4.13
2018-11-22T15:03:07.560Z,5.37
2018-11-22T15:05:36.934Z,5.80
2018-11-22T15:08:06.161Z,2.97
2018-11-22T15:10:35.418Z,4.27
2018-11-22T15:13:04.851Z,2.10
2018-11-22T15:15:34.244Z,0.97
2018-11-22T15:18:03.728Z,2.83
2018-11-22T15:20:32.968Z,4.37
2018-11-22T15:23:02.609Z,3.17
2018-11-22T15:25:32.047Z,4.47
2018-11-22T15:28:01.383Z,5.70
2018-11-22T15:30:30.886Z,6.10
2018-11-22T15:33:00.458Z,2.10
2018-11-22T15:35:30.865Z,5.17
2018-11-22T15:38:00.031Z,4.80
2018-11-22T15:40:29.416Z,5.80
2018-11-22T15:43:00.409Z,4.33
2018-11-22T15:45:34.773Z,1.80
2018-11-22T15:47:59.372Z,4.67
2018-11-22T15:50:29.397Z,3.43
2018-11-22T15:52:58.915Z,1.63
2018-11-22T15:55:28.555Z,3.80
2018-11-22T15:57:59.287Z,4.57
2018-11-22T16:00:30.082Z,3.40
2018-11-22T16:02:59.955Z,2.27
2018-11-22T16:05:29.676Z,1.83
2018-11-22T16:07:58.929Z,2.73
2018-11-22T16:10:30.096Z,4.43
2018-11-22T16:13:03.327Z,3.30
2018-11-22T16:15:38.233Z,3.20
2018-11-22T16:18:07.951Z,6.03
2018-11-22T16:20:37.481Z,5.20
2018-11-22T16:23:07.138Z,4.10
2018-11-22T16:25:36.349Z,7.30
2018-11-22T16:28:05.907Z,6.47
2018-11-22T16:30:35.436Z,5.80
2018-11-22T16:33:04.817Z,6.43
2018-11-22T16:35:34.572Z,5.13
2018-11-22T16:38:03.828Z,7.33
2018-11-22T16:40:33.079Z,6.83
2018-11-22T16:43:03.540Z,6.70
2018-11-22T16:45:33.829Z,6.03
2018-11-22T16:48:04.512Z,6.47
2018-11-22T16:50:34.755Z,4.93
2018-11-22T16:53:04.152Z,5.33
2018-11-22T16:55:33.591Z,7.53
2018-11-22T16:58:03.296Z,7.70
2018-11-22T17:00:33.816Z,4.90
2018-11-22T17:03:04.355Z,7.80
2018-11-22T17:05:34.116Z,7.57
2018-11-22T17:08:04.295Z,5.63
2018-11-22T17:10:34.055Z,6.80
2018-11-22T17:13:04.253Z,6.80
2018-11-22T17:15:34.715Z,7.70
2018-11-22T17:18:04.715Z,7.40
2018-11-22T17:20:34.516Z,8.40
2018-11-22T17:23:04.335Z,7.13
2018-11-22T17:25:34.507Z,7.47
2018-11-22T17:28:05.036Z,8.50
2018-11-22T17:30:36.204Z,7.03
2018-11-22T17:33:05.730Z,8.03
2018-11-22T17:35:34.997Z,8.03
2018-11-22T17:38:05.709Z,6.93
2018-11-22T17:40:37.743Z,8.50
2018-11-22T17:43:07.359Z,8.70
2018-11-22T17:45:39.703Z,7.33
2018-11-22T17:48:09.434Z,7.73
2018-11-22T17:50:40.155Z,8.37
2018-11-22T17:53:09.967Z,8.10
2018-11-22T17:55:39.336Z,9.30
2018-11-22T17:58:08.665Z,6.70
2018-11-22T18:00:39.493Z,7.40
2018-11-22T18:03:09.136Z,6.60
2018-11-22T18:05:38.465Z,6.87
2018-11-22T18:08:08.005Z,8.83
2018-11-22T18:10:38.763Z,8.27
2018-11-22T18:13:08.128Z,7.40
2018-11-22T18:15:42.425Z,7.27
2018-11-22T18:18:11.703Z,6.60
2018-11-22T18:20:41.135Z,7.10
2018-11-22T18:23:11.555Z,8.40
2018-11-22T18:25:39.964Z,7.80
2018-11-22T18:28:09.485Z,5.10
2018-11-22T18:30:38.875Z,7.80
2018-11-22T18:33:09.181Z,7.17
2018-11-22T18:35:38.621Z,6.60
2018-11-22T18:38:07.906Z,5.90
2018-11-22T18:40:38.785Z,7.30
2018-11-22T18:43:08.175Z,5.77
2018-11-22T18:45:39.055Z,6.70
2018-11-22T18:48:09.563Z,7.00
2018-11-22T18:50:45.653Z,7.33
2018-11-22T18:53:14.894Z,6.03
2018-11-22T18:55:44.151Z,6.87
2018-11-22T18:58:13.507Z,7.40
2018-11-22T19:00:44.272Z,7.50
2018-11-22T19:03:14.991Z,6.50
2018-11-22T19:05:44.287Z,7.23
2018-11-22T19:08:13.643Z,8.13
2018-11-22T19:10:43.603Z,6.03
2018-11-22T19:13:13.888Z,7.40
2018-11-22T19:15:44.872Z,6.47
2018-11-22T19:18:14.453Z,6.10
2018-11-22T19:20:44.743Z,5.37
2018-11-22T19:23:14.317Z,5.73
2018-11-22T19:25:43.573Z,7.37
2018-11-22T19:28:13.043Z,6.67
2018-11-22T19:30:43.877Z,5.77
2018-11-22T19:33:14.585Z,5.00
2018-11-22T19:35:45.460Z,5.43
2018-11-22T19:38:14.671Z,7.50
2018-11-22T19:40:44.558Z,4.70
2018-11-22T19:43:13.901Z,5.17
2018-11-22T19:45:45.969Z,6.40
2018-11-22T19:48:15.237Z,5.93
2018-11-22T19:50:44.683Z,6.33
2018-11-22T19:53:15.096Z,8.87
2018-11-22T19:55:44.772Z,8.10
2018-11-22T19:58:15.238Z,7.53
2018-11-22T20:00:44.451Z,7.50
2018-11-22T20:03:13.743Z,10.47
2018-11-22T20:05:43.650Z,7.57
2018-11-22T20:08:17.717Z,6.67
2018-11-22T20:10:47.950Z,7.63
2018-11-22T20:13:17.197Z,7.73
2018-11-22T20:15:46.507Z,5.73
2018-11-22T20:18:15.857Z,7.80
2018-11-22T20:20:49.545Z,8.17
2018-11-22T20:23:17.625Z,7.93
2018-11-22T20:25:44.390Z,6.90
2018-11-22T20:28:13.660Z,8.17
2018-11-22T20:30:44.536Z,8.97
2018-11-22T20:33:13.916Z,6.63
2018-11-22T20:35:43.187Z,6.60
2018-11-22T20:38:12.386Z,6.83
2018-11-22T20:40:41.851Z,5.70
2018-11-22T20:43:11.248Z,5.90
2018-11-22T20:45:40.911Z,7.90
2018-11-22T20:48:10.085Z,6.10
2018-11-22T20:50:39.375Z,6.90
2018-11-22T20:53:08.816Z,5.40
2018-11-22T20:55:39.296Z,6.23
2018-11-22T20:58:08.655Z,5.30
2018-11-22T21:00:39.503Z,7.17
2018-11-22T21:03:08.793Z,6.23
2018-11-22T21:05:38.045Z,7.30
2018-11-22T21:08:07.535Z,7.83
2018-11-22T21:10:37.244Z,7.53
2018-11-22T21:13:06.434Z,10.13
2018-11-22T21:15:36.528Z,5.70
2018-11-22T21:18:07.035Z,6.50
2018-11-22T21:20:38.915Z,6.40
2018-11-22T21:23:08.356Z,8.50
2018-11-22T21:25:37.774Z,8.33
2018-11-22T21:28:07.347Z,7.57
2018-11-22T21:30:37.822Z,7.30
2018-11-22T21:33:07.507Z,9.13
2018-11-22T21:35:37.335Z,6.00
2018-11-22T21:38:07.679Z,5.50
2018-11-22T21:40:37.020Z,6.43
2018-11-22T21:43:06.614Z,7.13
2018-11-22T21:45:36.411Z,6.30
2018-11-22T21:48:05.619Z,6.70
2018-11-22T21:50:34.955Z,6.10
2018-11-22T21:53:04.229Z,7.83
2018-11-22T21:55:33.786Z,7.90
2018-11-22T21:58:03.489Z,8.53
2018-11-22T22:00:37.340Z,7.03
2018-11-22T22:03:08.016Z,7.90
2018-11-22T22:05:37.517Z,5.53
2018-11-22T22:08:07.155Z,8.70
2018-11-22T22:10:36.827Z,6.73
2018-11-22T22:13:06.283Z,5.10
2018-11-22T22:15:36.349Z,5.30
2018-11-22T22:18:05.839Z,7.47
2018-11-22T22:20:36.067Z,7.20
2018-11-22T22:23:05.387Z,5.37
2018-11-22T22:25:34.988Z,5.13
2018-11-22T22:28:04.377Z,5.63
2018-11-22T22:30:34.555Z,7.20
2018-11-22T22:33:05.122Z,4.87
2018-11-22T22:35:34.760Z,6.77
2018-11-22T22:38:04.174Z,5.60
2018-11-22T22:40:34.303Z,6.63
2018-11-22T22:43:03.923Z,5.23
2018-11-22T22:45:33.788Z,7.53
2018-11-22T22:48:03.759Z,7.03
2018-11-22T22:50:33.616Z,4.53
2018-11-22T22:53:03.132Z,6.93
2018-11-22T22:55:32.951Z,7.07
2018-11-22T22:58:02.933Z,5.90
2018-11-22T23:00:39.502Z,6.10
2018-11-22T23:03:12.116Z,5.90
2018-11-22T23:05:41.851Z,6.77
2018-11-22T23:08:11.304Z,4.10
2018-11-22T23:10:41.956Z,4.00
2018-11-22T23:13:13.641Z,6.87
2018-11-22T23:15:45.098Z,6.93
2018-11-22T23:21:46.088Z,5.20
2018-11-22T23:24:15.517Z,5.97
2018-11-22T23:26:45.986Z,6.90
2018-11-22T23:29:16.978Z,6.50
2018-11-22T23:31:47.577Z,8.20
2018-11-22T23:34:19.042Z,5.70
2018-11-22T23:36:50.888Z,5.03
2018-11-22T23:39:21.675Z,7.43
2018-11-22T23:41:53.315Z,6.10
2018-11-22T23:44:24.078Z,5.60
2018-11-22T23:46:53.896Z,6.73
2018-11-22T23:49:24.177Z,6.70
2018-11-22T23:51:53.946Z,6.30
2018-11-22T23:54:23.305Z,6.50
2018-11-22T23:56:53.605Z,4.97
2018-11-22T23:59:23.935Z,5.17
